sensor_id;sensor_type;location;lat;lon;timestamp;pressure;altitude;pressure_sealevel;temperature;humidity
30682;BME280;17439;48.092;11.842;2023-09-18T00:01:04;95077.22;;;21.54;58.32
30682;BME280;17439;48.092;11.842;2023-09-18T00:03:31;95074.03;;;21.52;58.06
30682;BME280;17439;48.092;11.842;2023-09-18T00:05:58;95068.91;;;21.50;57.72
30682;BME280;17439;48.092;11.842;2023-09-18T00:08:25;95070.47;;;21.48;57.74
30682;BME280;17439;48.092;11.842;2023-09-18T00:10:53;95071.63;;;21.47;57.89
30682;BME280;17439;48.092;11.842;2023-09-18T00:13:22;95068.09;;;21.46;58.17
30682;BME280;17439;48.092;11.842;2023-09-18T00:15:49;95050.34;;;21.44;58.11
30682;BME280;17439;48.092;11.842;2023-09-18T00:18:16;95055.88;;;21.44;58.22
30682;BME280;17439;48.092;11.842;2023-09-18T00:20:43;95057.44;;;21.41;58.06
30682;BME280;17439;48.092;11.842;2023-09-18T00:23:10;95050.75;;;21.38;57.99
30682;BME280;17439;48.092;11.842;2023-09-18T00:25:37;95048.00;;;21.38;58.19
30682;BME280;17439;48.092;11.842;2023-09-18T00:28:04;95043.25;;;21.35;57.97
30682;BME280;17439;48.092;11.842;2023-09-18T00:30:31;95040.09;;;21.33;57.86
30682;BME280;17439;48.092;11.842;2023-09-18T00:33:01;95044.03;;;21.32;57.84
30682;BME280;17439;48.092;11.842;2023-09-18T00:35:28;95039.69;;;21.31;58.00
30682;BME280;17439;48.092;11.842;2023-09-18T00:37:54;95037.72;;;21.28;57.98
30682;BME280;17439;48.092;11.842;2023-09-18T00:40:21;95037.31;;;21.26;58.08
30682;BME280;17439;48.092;11.842;2023-09-18T00:42:48;95030.59;;;21.24;58.34
30682;BME280;17439;48.092;11.842;2023-09-18T00:45:15;95021.16;;;21.21;58.02
30682;BME280;17439;48.092;11.842;2023-09-18T00:47:44;95020.78;;;21.19;58.08
30682;BME280;17439;48.092;11.842;2023-09-18T00:50:13;95015.66;;;21.17;58.13
30682;BME280;17439;48.092;11.842;2023-09-18T00:52:41;95024.31;;;21.16;58.11
30682;BME280;17439;48.092;11.842;2023-09-18T00:55:09;95005.41;;;21.14;58.27
30682;BME280;17439;48.092;11.842;2023-09-18T00:57:36;95005.00;;;21.12;58.16
30682;BME280;17439;48.092;11.842;2023-09-18T01:00:04;95001.06;;;21.10;57.97
30682;BME280;17439;48.092;11.842;2023-09-18T01:02:31;94997.09;;;21.07;58.45
30682;BME280;17439;48.092;11.842;2023-09-18T01:04:58;94997.50;;;21.06;58.01
30682;BME280;17439;48.092;11.842;2023-09-18T01:07:26;94996.72;;;21.05;58.17
30682;BME280;17439;48.092;11.842;2023-09-18T01:09:55;95003.78;;;21.02;58.25
30682;BME280;17439;48.092;11.842;2023-09-18T01:12:33;94999.88;;;21.00;59.05
30682;BME280;17439;48.092;11.842;2023-09-18T01:15:26;95009.69;;;20.97;58.78
30682;BME280;17439;48.092;11.842;2023-09-18T01:17:53;95009.28;;;20.95;58.42
30682;BME280;17439;48.092;11.842;2023-09-18T01:20:20;95002.19;;;20.94;58.63
30682;BME280;17439;48.092;11.842;2023-09-18T01:22:47;94993.53;;;20.92;58.20
30682;BME280;17439;48.092;11.842;2023-09-18T01:25:14;94983.28;;;20.89;58.35
30682;BME280;17439;48.092;11.842;2023-09-18T01:27:40;94980.16;;;20.87;58.71
30682;BME280;17439;48.092;11.842;2023-09-18T01:30:07;94968.31;;;20.83;58.80
30682;BME280;17439;48.092;11.842;2023-09-18T01:32:36;94965.16;;;20.81;58.83
30682;BME280;17439;48.092;11.842;2023-09-18T01:35:05;94970.25;;;20.79;58.67
30682;BME280;17439;48.092;11.842;2023-09-18T01:37:33;94971.03;;;20.76;58.75
30682;BME280;17439;48.092;11.842;2023-09-18T01:40:01;94978.91;;;20.74;59.06
30682;BME280;17439;48.092;11.842;2023-09-18T01:42:29;94974.56;;;20.69;58.76
30682;BME280;17439;48.092;11.842;2023-09-18T01:44:56;94977.69;;;20.68;58.77
30682;BME280;17439;48.092;11.842;2023-09-18T01:47:23;94979.63;;;20.63;59.21
30682;BME280;17439;48.092;11.842;2023-09-18T01:49:50;94993.34;;;20.56;59.25
30682;BME280;17439;48.092;11.842;2023-09-18T01:52:16;95002.78;;;20.55;59.17
30682;BME280;17439;48.092;11.842;2023-09-18T01:54:43;94998.06;;;20.52;59.30
30682;BME280;17439;48.092;11.842;2023-09-18T01:57:11;95006.69;;;20.47;59.36
30682;BME280;17439;48.092;11.842;2023-09-18T01:59:37;95001.16;;;20.43;59.04
30682;BME280;17439;48.092;11.842;2023-09-18T02:02:05;94991.69;;;20.41;59.11
30682;BME280;17439;48.092;11.842;2023-09-18T02:04:33;94993.28;;;20.38;59.02
30682;BME280;17439;48.092;11.842;2023-09-18T02:07:24;94983.41;;;20.34;59.02
30682;BME280;17439;48.092;11.842;2023-09-18T02:09:51;94982.66;;;20.33;59.00
30682;BME280;17439;48.092;11.842;2023-09-18T02:12:17;94979.06;;;20.29;59.39
30682;BME280;17439;48.092;11.842;2023-09-18T02:14:45;94968.84;;;20.26;59.32
30682;BME280;17439;48.092;11.842;2023-09-18T02:17:11;94968.81;;;20.22;59.19
30682;BME280;17439;48.092;11.842;2023-09-18T02:19:38;94960.16;;;20.20;59.10
30682;BME280;17439;48.092;11.842;2023-09-18T02:22:05;94948.34;;;20.16;59.24
30682;BME280;17439;48.092;11.842;2023-09-18T02:24:32;94947.13;;;20.14;59.51
30682;BME280;17439;48.092;11.842;2023-09-18T02:26:58;94943.59;;;20.09;59.37
30682;BME280;17439;48.092;11.842;2023-09-18T02:29:25;94952.63;;;20.06;59.51
30682;BME280;17439;48.092;11.842;2023-09-18T02:31:52;94958.88;;;20.03;59.62
30682;BME280;17439;48.092;11.842;2023-09-18T02:34:19;94954.53;;;19.99;59.42
30682;BME280;17439;48.092;11.842;2023-09-18T02:36:45;94949.78;;;19.96;59.26
30682;BME280;17439;48.092;11.842;2023-09-18T02:39:12;94949.78;;;19.92;59.35
30682;BME280;17439;48.092;11.842;2023-09-18T02:41:39;94942.28;;;19.85;59.56
30682;BME280;17439;48.092;11.842;2023-09-18T02:44:06;94939.47;;;19.82;59.71
30682;BME280;17439;48.092;11.842;2023-09-18T02:46:32;94943.81;;;19.79;59.92
30682;BME280;17439;48.092;11.842;2023-09-18T02:48:59;94929.19;;;19.75;59.72
30682;BME280;17439;48.092;11.842;2023-09-18T02:51:26;94941.34;;;19.74;60.04
30682;BME280;17439;48.092;11.842;2023-09-18T02:53:53;94946.84;;;19.70;59.77
30682;BME280;17439;48.092;11.842;2023-09-18T02:56:20;94933.84;;;19.67;59.97
30682;BME280;17439;48.092;11.842;2023-09-18T02:58:46;94936.19;;;19.65;59.80
30682;BME280;17439;48.092;11.842;2023-09-18T03:01:13;94923.59;;;19.61;59.79
30682;BME280;17439;48.092;11.842;2023-09-18T03:03:40;94918.88;;;19.57;59.91
30682;BME280;17439;48.092;11.842;2023-09-18T03:06:07;94916.50;;;19.56;60.23
30682;BME280;17439;48.092;11.842;2023-09-18T03:08:34;94917.25;;;19.53;60.24
30682;BME280;17439;48.092;11.842;2023-09-18T03:11:02;94920.38;;;19.51;60.10
30682;BME280;17439;48.092;11.842;2023-09-18T03:13:30;94914.09;;;19.47;60.17
30682;BME280;17439;48.092;11.842;2023-09-18T03:15:57;94901.50;;;19.46;60.30
30682;BME280;17439;48.092;11.842;2023-09-18T03:18:26;94903.44;;;19.42;60.48
30682;BME280;17439;48.092;11.842;2023-09-18T03:20:53;94906.19;;;19.42;60.66
30682;BME280;17439;48.092;11.842;2023-09-18T03:23:20;94899.91;;;19.42;60.40
30682;BME280;17439;48.092;11.842;2023-09-18T03:25:47;94892.44;;;19.42;60.58
30682;BME280;17439;48.092;11.842;2023-09-18T03:28:19;94897.53;;;19.40;60.71
30682;BME280;17439;48.092;11.842;2023-09-18T03:30:46;94898.31;;;19.40;60.82
30682;BME280;17439;48.092;11.842;2023-09-18T03:33:13;94892.44;;;19.42;60.56
30682;BME280;17439;48.092;11.842;2023-09-18T03:35:47;94881.81;;;19.40;61.13
30682;BME280;17439;48.092;11.842;2023-09-18T03:38:15;94886.94;;;19.42;60.68
30682;BME280;17439;48.092;11.842;2023-09-18T03:40:43;94884.19;;;19.42;60.73
30682;BME280;17439;48.092;11.842;2023-09-18T03:43:10;94880.28;;;19.43;60.58
30682;BME280;17439;48.092;11.842;2023-09-18T03:45:38;94874.78;;;19.43;60.65
30682;BME280;17439;48.092;11.842;2023-09-18T03:48:04;94880.28;;;19.43;60.60
30682;BME280;17439;48.092;11.842;2023-09-18T03:50:31;94875.56;;;19.44;60.22
30682;BME280;17439;48.092;11.842;2023-09-18T03:52:58;94869.28;;;19.43;60.42
30682;BME280;17439;48.092;11.842;2023-09-18T03:55:25;94879.13;;;19.44;60.07
30682;BME280;17439;48.092;11.842;2023-09-18T03:57:52;94873.56;;;19.40;60.31
30682;BME280;17439;48.092;11.842;2023-09-18T04:00:21;94861.81;;;19.40;60.39
30682;BME280;17439;48.092;11.842;2023-09-18T04:02:47;94862.19;;;19.38;60.38
30682;BME280;17439;48.092;11.842;2023-09-18T04:05:14;94853.16;;;19.38;60.38
30682;BME280;17439;48.092;11.842;2023-09-18T04:07:41;94851.16;;;19.35;60.36
30682;BME280;17439;48.092;11.842;2023-09-18T04:10:08;94844.09;;;19.34;60.42
30682;BME280;17439;48.092;11.842;2023-09-18T04:12:35;94840.16;;;19.31;60.29
30682;BME280;17439;48.092;11.842;2023-09-18T04:15:02;94842.09;;;19.31;60.05
30682;BME280;17439;48.092;11.842;2023-09-18T04:17:29;94841.69;;;19.29;60.23
30682;BME280;17439;48.092;11.842;2023-09-18T04:19:56;94838.97;;;19.29;60.20
30682;BME280;17439;48.092;11.842;2023-09-18T04:22:22;94837.38;;;19.28;60.24
30682;BME280;17439;48.092;11.842;2023-09-18T04:24:49;94841.69;;;19.29;60.17
30682;BME280;17439;48.092;11.842;2023-09-18T04:27:16;94844.06;;;19.27;60.29
30682;BME280;17439;48.092;11.842;2023-09-18T04:29:43;94833.06;;;19.27;60.22
30682;BME280;17439;48.092;11.842;2023-09-18T04:32:10;94831.47;;;19.26;60.00
30682;BME280;17439;48.092;11.842;2023-09-18T04:34:37;94829.09;;;19.24;59.90
30682;BME280;17439;48.092;11.842;2023-09-18T04:37:04;94831.84;;;19.24;60.06
30682;BME280;17439;48.092;11.842;2023-09-18T04:39:31;94829.50;;;19.23;60.26
30682;BME280;17439;48.092;11.842;2023-09-18T04:41:58;94818.88;;;19.21;60.31
30682;BME280;17439;48.092;11.842;2023-09-18T04:44:26;94817.28;;;19.20;59.85
30682;BME280;17439;48.092;11.842;2023-09-18T04:46:53;94818.84;;;19.17;59.96
30682;BME280;17439;48.092;11.842;2023-09-18T04:49:20;94818.84;;;19.17;60.28
30682;BME280;17439;48.092;11.842;2023-09-18T04:51:47;94822.00;;;19.16;59.87
30682;BME280;17439;48.092;11.842;2023-09-18T04:54:13;94816.50;;;19.16;59.83
30682;BME280;17439;48.092;11.842;2023-09-18T04:56:40;94818.84;;;19.14;59.97
30682;BME280;17439;48.092;11.842;2023-09-18T04:59:07;94824.34;;;19.14;60.07
30682;BME280;17439;48.092;11.842;2023-09-18T05:01:34;94821.97;;;19.12;59.83
30682;BME280;17439;48.092;11.842;2023-09-18T05:04:00;94827.47;;;19.12;60.03
30682;BME280;17439;48.092;11.842;2023-09-18T05:06:27;94827.47;;;19.12;60.25
30682;BME280;17439;48.092;11.842;2023-09-18T05:08:55;94825.09;;;19.11;60.13
30682;BME280;17439;48.092;11.842;2023-09-18T05:11:22;94816.84;;;19.11;60.45
30682;BME280;17439;48.092;11.842;2023-09-18T05:13:49;94811.38;;;19.11;60.33
30682;BME280;17439;48.092;11.842;2023-09-18T05:16:16;94812.16;;;19.11;60.12
30682;BME280;17439;48.092;11.842;2023-09-18T05:18:43;94807.44;;;19.12;60.41
30682;BME280;17439;48.092;11.842;2023-09-18T05:21:10;94822.38;;;19.14;60.17
30682;BME280;17439;48.092;11.842;2023-09-18T05:23:36;94827.47;;;19.16;60.48
30682;BME280;17439;48.092;11.842;2023-09-18T05:26:03;94829.09;;;19.20;60.44
30682;BME280;17439;48.092;11.842;2023-09-18T05:28:30;94825.59;;;19.24;60.38
30682;BME280;17439;48.092;11.842;2023-09-18T05:30:57;94833.84;;;19.27;60.35
30682;BME280;17439;48.092;11.842;2023-09-18T05:33:24;94836.22;;;19.32;60.63
30682;BME280;17439;48.092;11.842;2023-09-18T05:35:51;94829.59;;;19.37;60.22
30682;BME280;17439;48.092;11.842;2023-09-18T05:38:17;94833.94;;;19.42;60.48
30682;BME280;17439;48.092;11.842;2023-09-18T05:40:44;94839.44;;;19.45;60.40
30682;BME280;17439;48.092;11.842;2023-09-18T05:43:11;94845.00;;;19.52;60.46
30682;BME280;17439;48.092;11.842;2023-09-18T05:45:38;94847.38;;;19.57;60.57
30682;BME280;17439;48.092;11.842;2023-09-18T05:48:05;94849.75;;;19.63;60.44
30682;BME280;17439;48.092;11.842;2023-09-18T05:50:33;94838.81;;;19.70;60.39
30682;BME280;17439;48.092;11.842;2023-09-18T05:53:01;94838.44;;;19.75;60.50
30682;BME280;17439;48.092;11.842;2023-09-18T05:55:28;94838.09;;;19.80;60.38
30682;BME280;17439;48.092;11.842;2023-09-18T05:57:54;94831.88;;;19.87;60.62
30682;BME280;17439;48.092;11.842;2023-09-18T06:00:21;94828.38;;;19.93;60.42
30682;BME280;17439;48.092;11.842;2023-09-18T06:02:48;94831.13;;;20.01;60.69
30682;BME280;17439;48.092;11.842;2023-09-18T06:05:15;94831.94;;;20.08;60.75
30682;BME280;17439;48.092;11.842;2023-09-18T06:07:42;94825.28;;;20.17;60.79
30682;BME280;17439;48.092;11.842;2023-09-18T06:10:09;94829.25;;;20.26;60.56
30682;BME280;17439;48.092;11.842;2023-09-18T06:12:38;94822.63;;;20.35;60.63
30682;BME280;17439;48.092;11.842;2023-09-18T06:15:08;94816.34;;;20.45;60.12
30682;BME280;17439;48.092;11.842;2023-09-18T06:17:39;94817.94;;;20.57;60.23
30682;BME280;17439;48.092;11.842;2023-09-18T06:20:08;94813.28;;;20.68;60.35
30682;BME280;17439;48.092;11.842;2023-09-18T06:22:39;94816.03;;;20.79;60.40
30682;BME280;17439;48.092;11.842;2023-09-18T06:25:07;94814.88;;;20.91;59.95
30682;BME280;17439;48.092;11.842;2023-09-18T06:27:34;94814.88;;;20.91;59.97
30682;BME280;17439;48.092;11.842;2023-09-18T06:30:01;94812.09;;;21.09;60.10
30682;BME280;17439;48.092;11.842;2023-09-18T06:32:27;94817.22;;;21.21;59.85
30682;BME280;17439;48.092;11.842;2023-09-18T06:34:54;94827.44;;;21.31;59.98
30682;BME280;17439;48.092;11.842;2023-09-18T06:37:21;94830.56;;;21.41;59.73
30682;BME280;17439;48.092;11.842;2023-09-18T06:39:47;94823.13;;;21.48;59.67
30682;BME280;17439;48.092;11.842;2023-09-18T06:42:14;94830.56;;;21.59;59.72
30682;BME280;17439;48.092;11.842;2023-09-18T06:44:41;94831.34;;;21.66;59.28
30682;BME280;17439;48.092;11.842;2023-09-18T06:47:08;94819.91;;;21.75;59.43
30682;BME280;17439;48.092;11.842;2023-09-18T06:49:34;94822.63;;;21.82;58.58
30682;BME280;17439;48.092;11.842;2023-09-18T06:52:01;94817.88;;;21.90;58.59
30682;BME280;17439;48.092;11.842;2023-09-18T06:54:31;94816.28;;;22.00;58.06
30682;BME280;17439;48.092;11.842;2023-09-18T06:56:58;94816.25;;;22.07;57.63
30682;BME280;17439;48.092;11.842;2023-09-18T06:59:25;94814.66;;;22.13;57.68
30682;BME280;17439;48.092;11.842;2023-09-18T07:01:54;94817.78;;;22.19;57.51
30682;BME280;17439;48.092;11.842;2023-09-18T07:04:21;94822.91;;;22.24;56.90
30682;BME280;17439;48.092;11.842;2023-09-18T07:06:47;94823.66;;;22.28;56.97
30682;BME280;17439;48.092;11.842;2023-09-18T07:09:14;94836.69;;;22.31;56.94
30682;BME280;17439;48.092;11.842;2023-09-18T07:11:41;94833.13;;;22.34;56.59
30682;BME280;17439;48.092;11.842;2023-09-18T07:14:07;94838.63;;;22.38;56.98
30682;BME280;17439;48.092;11.842;2023-09-18T07:16:34;94848.84;;;22.41;56.86
30682;BME280;17439;48.092;11.842;2023-09-18T07:19:01;94855.16;;;22.45;57.29
30682;BME280;17439;48.092;11.842;2023-09-18T07:21:28;94878.00;;;22.49;57.04
30682;BME280;17439;48.092;11.842;2023-09-18T07:23:55;94885.50;;;22.56;57.34
30682;BME280;17439;48.092;11.842;2023-09-18T07:26:21;94887.41;;;22.62;57.13
30682;BME280;17439;48.092;11.842;2023-09-18T07:28:48;94896.06;;;22.68;56.77
30682;BME280;17439;48.092;11.842;2023-09-18T07:31:15;94901.19;;;22.73;57.08
30682;BME280;17439;48.092;11.842;2023-09-18T07:33:41;94903.91;;;22.80;56.26
30682;BME280;17439;48.092;11.842;2023-09-18T07:36:08;94910.56;;;22.87;56.13
30682;BME280;17439;48.092;11.842;2023-09-18T07:38:35;94909.38;;;22.91;55.28
30682;BME280;17439;48.092;11.842;2023-09-18T07:41:02;94903.41;;;22.96;54.56
30682;BME280;17439;48.092;11.842;2023-09-18T07:43:29;94896.25;;;23.03;53.83
30682;BME280;17439;48.092;11.842;2023-09-18T07:45:55;94893.91;;;23.08;54.09
30682;BME280;17439;48.092;11.842;2023-09-18T07:48:22;94912.00;;;23.16;54.25
30682;BME280;17439;48.092;11.842;2023-09-18T07:50:49;94889.44;;;23.22;53.55
30682;BME280;17439;48.092;11.842;2023-09-18T07:53:18;94900.84;;;23.31;53.52
30682;BME280;17439;48.092;11.842;2023-09-18T07:55:45;94902.38;;;23.35;53.49
30682;BME280;17439;48.092;11.842;2023-09-18T07:58:11;94903.50;;;23.45;53.54
30682;BME280;17439;48.092;11.842;2023-09-18T08:00:38;94900.22;;;23.58;52.65
30682;BME280;17439;48.092;11.842;2023-09-18T08:03:05;94898.16;;;23.65;52.04
30682;BME280;17439;48.092;11.842;2023-09-18T08:05:31;94901.63;;;23.77;51.88
30682;BME280;17439;48.092;11.842;2023-09-18T08:07:58;94916.59;;;23.86;51.50
30682;BME280;17439;48.092;11.842;2023-09-18T08:10:26;94925.63;;;23.90;51.41
30682;BME280;17439;48.092;11.842;2023-09-18T08:12:52;94926.34;;;23.98;50.61
30682;BME280;17439;48.092;11.842;2023-09-18T08:15:20;94946.09;;;24.04;50.60
30682;BME280;17439;48.092;11.842;2023-09-18T08:17:47;94937.28;;;24.13;50.51
30682;BME280;17439;48.092;11.842;2023-09-18T08:20:15;94947.63;;;24.05;50.11
30682;BME280;17439;48.092;11.842;2023-09-18T08:22:43;94945.47;;;24.23;50.27
30682;BME280;17439;48.092;11.842;2023-09-18T08:25:10;94937.22;;;24.20;51.39
30682;BME280;17439;48.092;11.842;2023-09-18T08:27:38;94929.16;;;24.33;51.21
30682;BME280;17439;48.092;11.842;2023-09-18T08:30:06;94932.22;;;24.42;50.21
30682;BME280;17439;48.092;11.842;2023-09-18T08:32:32;94932.59;;;24.44;50.69
30682;BME280;17439;48.092;11.842;2023-09-18T08:34:59;94932.09;;;24.53;51.27
30682;BME280;17439;48.092;11.842;2023-09-18T08:37:26;94933.97;;;24.63;51.01
30682;BME280;17439;48.092;11.842;2023-09-18T08:39:53;94943.38;;;24.73;51.17
30682;BME280;17439;48.092;11.842;2023-09-18T08:42:20;94947.97;;;24.83;51.28
30682;BME280;17439;48.092;11.842;2023-09-18T08:44:49;94947.06;;;24.93;50.90
30682;BME280;17439;48.092;11.842;2023-09-18T08:47:18;94947.38;;;24.99;50.15
30682;BME280;17439;48.092;11.842;2023-09-18T08:49:48;94948.84;;;25.07;49.66
30682;BME280;17439;48.092;11.842;2023-09-18T08:52:16;94951.53;;;25.14;49.67
30682;BME280;17439;48.092;11.842;2023-09-18T08:54:43;94957.41;;;25.20;49.78
30682;BME280;17439;48.092;11.842;2023-09-18T08:57:10;94964.81;;;25.27;49.27
30682;BME280;17439;48.092;11.842;2023-09-18T08:59:39;94956.47;;;25.30;49.03
30682;BME280;17439;48.092;11.842;2023-09-18T09:02:06;94956.38;;;25.38;48.92
30682;BME280;17439;48.092;11.842;2023-09-18T09:04:33;94955.16;;;25.39;49.18
30682;BME280;17439;48.092;11.842;2023-09-18T09:06:59;94958.19;;;25.48;48.80
30682;BME280;17439;48.092;11.842;2023-09-18T09:09:26;94952.66;;;25.48;48.73
30682;BME280;17439;48.092;11.842;2023-09-18T09:11:53;94971.22;;;25.51;49.03
30682;BME280;17439;48.092;11.842;2023-09-18T09:14:20;94979.91;;;25.53;47.99
30682;BME280;17439;48.092;11.842;2023-09-18T09:16:48;94981.06;;;25.56;48.76
30682;BME280;17439;48.092;11.842;2023-09-18T09:19:18;94982.66;;;25.57;48.48
30682;BME280;17439;48.092;11.842;2023-09-18T09:21:53;94979.06;;;25.56;48.35
30682;BME280;17439;48.092;11.842;2023-09-18T09:24:36;94988.63;;;25.55;47.20
30682;BME280;17439;48.092;11.842;2023-09-18T09:27:03;94983.06;;;25.55;48.89
30682;BME280;17439;48.092;11.842;2023-09-18T09:29:30;94971.56;;;25.57;48.61
30682;BME280;17439;48.092;11.842;2023-09-18T09:32:12;94975.88;;;25.58;47.54
30682;BME280;17439;48.092;11.842;2023-09-18T09:34:40;94977.81;;;25.61;48.61
30682;BME280;17439;48.092;11.842;2023-09-18T09:37:07;94982.09;;;25.65;48.61
30682;BME280;17439;48.092;11.842;2023-09-18T09:39:34;94984.81;;;25.69;49.27
30682;BME280;17439;48.092;11.842;2023-09-18T09:42:02;94989.53;;;25.72;49.43
30682;BME280;17439;48.092;11.842;2023-09-18T09:44:32;94988.66;;;25.79;49.05
30682;BME280;17439;48.092;11.842;2023-09-18T09:46:59;94990.53;;;25.85;49.51
30682;BME280;17439;48.092;11.842;2023-09-18T09:49:26;95001.50;;;25.93;49.34
30682;BME280;17439;48.092;11.842;2023-09-18T09:51:53;94987.13;;;26.01;49.59
30682;BME280;17439;48.092;11.842;2023-09-18T09:54:40;95000.56;;;26.03;49.01
30682;BME280;17439;48.092;11.842;2023-09-18T09:57:07;94993.69;;;26.11;49.49
30682;BME280;17439;48.092;11.842;2023-09-18T09:59:34;94988.88;;;26.15;49.00
30682;BME280;17439;48.092;11.842;2023-09-18T10:02:01;94989.94;;;26.21;48.21
30682;BME280;17439;48.092;11.842;2023-09-18T10:04:31;94996.22;;;26.25;48.13
30682;BME280;17439;48.092;11.842;2023-09-18T10:07:05;94996.13;;;26.29;47.70
30682;BME280;17439;48.092;11.842;2023-09-18T10:09:35;95000.06;;;26.32;47.92
30682;BME280;17439;48.092;11.842;2023-09-18T10:12:04;95005.56;;;26.35;48.03
30682;BME280;17439;48.092;11.842;2023-09-18T10:14:36;94994.88;;;26.34;47.62
30682;BME280;17439;48.092;11.842;2023-09-18T10:17:23;94995.22;;;26.36;48.11
30682;BME280;17439;48.092;11.842;2023-09-18T10:20:12;94994.81;;;26.37;47.72
30682;BME280;17439;48.092;11.842;2023-09-18T10:22:40;94987.53;;;26.43;48.11
30682;BME280;17439;48.092;11.842;2023-09-18T10:25:14;95001.81;;;26.46;47.68
30682;BME280;17439;48.092;11.842;2023-09-18T10:27:42;94989.78;;;26.52;47.56
30682;BME280;17439;48.092;11.842;2023-09-18T10:30:09;94994.25;;;26.46;47.93
30682;BME280;17439;48.092;11.842;2023-09-18T10:32:37;94997.19;;;26.59;48.00
30682;BME280;17439;48.092;11.842;2023-09-18T10:35:06;94996.63;;;26.68;46.81
30682;BME280;17439;48.092;11.842;2023-09-18T10:37:33;95003.00;;;26.68;46.61
30682;BME280;17439;48.092;11.842;2023-09-18T10:40:01;95002.16;;;26.71;46.42
30682;BME280;17439;48.092;11.842;2023-09-18T10:42:29;95005.88;;;26.65;46.57
30682;BME280;17439;48.092;11.842;2023-09-18T10:44:56;95018.09;;;26.67;46.96
30682;BME280;17439;48.092;11.842;2023-09-18T10:47:23;95018.44;;;26.69;46.94
30682;BME280;17439;48.092;11.842;2023-09-18T10:49:50;95032.00;;;26.67;46.81
30682;BME280;17439;48.092;11.842;2023-09-18T10:52:17;95019.34;;;26.66;46.72
30682;BME280;17439;48.092;11.842;2023-09-18T10:54:44;95025.72;;;26.63;46.33
30682;BME280;17439;48.092;11.842;2023-09-18T10:57:11;95032.03;;;26.64;46.85
30682;BME280;17439;48.092;11.842;2023-09-18T10:59:45;95037.59;;;26.64;46.29
30682;BME280;17439;48.092;11.842;2023-09-18T11:02:15;95030.03;;;26.64;46.58
30682;BME280;17439;48.092;11.842;2023-09-18T11:04:44;95036.03;;;26.63;45.78
30682;BME280;17439;48.092;11.842;2023-09-18T11:07:19;95041.22;;;26.60;46.28
30682;BME280;17439;48.092;11.842;2023-09-18T11:09:47;95036.84;;;26.63;46.68
30682;BME280;17439;48.092;11.842;2023-09-18T11:12:16;95034.09;;;26.59;46.23
30682;BME280;17439;48.092;11.842;2023-09-18T11:14:56;95039.22;;;26.61;45.10
30682;BME280;17439;48.092;11.842;2023-09-18T11:17:40;95039.22;;;26.61;45.11
30682;BME280;17439;48.092;11.842;2023-09-18T11:22:55;95040.06;;;26.58;44.96
30682;BME280;17439;48.092;11.842;2023-09-18T11:25:39;95036.94;;;26.56;45.29
30682;BME280;17439;48.092;11.842;2023-09-18T11:28:08;95044.50;;;26.55;45.61
30682;BME280;17439;48.092;11.842;2023-09-18T11:30:50;95036.88;;;26.59;45.91
30682;BME280;17439;48.092;11.842;2023-09-18T11:33:30;95030.97;;;26.57;46.37
30682;BME280;17439;48.092;11.842;2023-09-18T11:36:04;95037.69;;;26.60;44.73
30682;BME280;17439;48.092;11.842;2023-09-18T11:38:30;95054.16;;;26.71;45.61
30682;BME280;17439;48.092;11.842;2023-09-18T11:40:58;95055.31;;;26.73;45.46
30682;BME280;17439;48.092;11.842;2023-09-18T11:43:27;95056.41;;;26.79;45.05
30682;BME280;17439;48.092;11.842;2023-09-18T11:45:56;95054.81;;;26.78;44.89
30682;BME280;17439;48.092;11.842;2023-09-18T11:48:25;95046.97;;;26.73;44.54
30682;BME280;17439;48.092;11.842;2023-09-18T11:50:52;95050.19;;;26.72;44.84
30682;BME280;17439;48.092;11.842;2023-09-18T11:53:19;95057.13;;;26.60;44.74
30682;BME280;17439;48.092;11.842;2023-09-18T11:55:47;95072.59;;;26.61;44.94
30682;BME280;17439;48.092;11.842;2023-09-18T11:58:14;95059.84;;;26.64;45.22
30682;BME280;17439;48.092;11.842;2023-09-18T12:00:41;95076.59;;;26.60;45.08
30682;BME280;17439;48.092;11.842;2023-09-18T12:03:22;95074.28;;;26.55;45.27
30682;BME280;17439;48.092;11.842;2023-09-18T12:05:52;95089.41;;;26.54;45.38
30682;BME280;17439;48.092;11.842;2023-09-18T12:08:19;95096.66;;;26.48;45.24
30682;BME280;17439;48.092;11.842;2023-09-18T12:10:49;95107.88;;;26.40;44.98
30682;BME280;17439;48.092;11.842;2023-09-18T12:13:16;95111.19;;;26.32;44.84
30682;BME280;17439;48.092;11.842;2023-09-18T12:15:43;95106.13;;;26.27;44.87
30682;BME280;17439;48.092;11.842;2023-09-18T12:18:11;95118.50;;;26.22;44.94
30682;BME280;17439;48.092;11.842;2023-09-18T12:20:44;95120.41;;;26.01;44.76
30682;BME280;17439;48.092;11.842;2023-09-18T12:23:11;95119.28;;;25.95;45.10
30682;BME280;17439;48.092;11.842;2023-09-18T12:25:38;95122.25;;;25.81;45.23
30682;BME280;17439;48.092;11.842;2023-09-18T12:28:07;95128.06;;;25.63;44.39
30682;BME280;17439;48.092;11.842;2023-09-18T12:30:33;95136.13;;;25.50;44.78
30682;BME280;17439;48.092;11.842;2023-09-18T12:33:01;95151.72;;;25.40;44.63
30682;BME280;17439;48.092;11.842;2023-09-18T12:35:28;95168.94;;;25.21;45.08
30682;BME280;17439;48.092;11.842;2023-09-18T12:37:56;95169.44;;;25.12;44.84
30682;BME280;17439;48.092;11.842;2023-09-18T12:40:28;95173.22;;;24.91;45.47
30682;BME280;17439;48.092;11.842;2023-09-18T12:42:56;95185.66;;;24.72;46.48
30682;BME280;17439;48.092;11.842;2023-09-18T12:45:24;95180.25;;;24.54;47.05
30682;BME280;17439;48.092;11.842;2023-09-18T12:47:53;95192.22;;;24.40;47.18
30682;BME280;17439;48.092;11.842;2023-09-18T12:50:21;95193.53;;;24.24;47.58
30682;BME280;17439;48.092;11.842;2023-09-18T12:52:48;95195.22;;;24.07;47.80
30682;BME280;17439;48.092;11.842;2023-09-18T12:55:24;95188.16;;;23.99;47.98
30682;BME280;17439;48.092;11.842;2023-09-18T12:57:54;95184.25;;;23.86;48.41